Time;durP1;ratioP1;P1;durP2;ratioP2;P2;SDS_P1;SDS_P2;PMS_P1;PMS_P2;Temp;Humidity;BMP_temperature;BMP_pressure;BME280_temperature;BME280_humidity;BME280_pressure;Samples;Min_cycle;Max_cycle;Signal;HPM_P1;HPM_P2
2023/07/14 00:01:33;;;;;;;7.20;5.15;;;;;;;;;;4955138;28;20053;-76
2023/07/14 00:03:59;;;;;;;11.35;6.40;;;16.90;99.90;;;;;;4955689;28;20039;-76
2023/07/14 00:06:25;;;;;;;9.32;6.30;;;16.90;99.90;;;;;;4958956;28;20384;-76
2023/07/14 00:08:51;;;;;;;10.52;6.25;;;;;;;;;;4976432;28;20105;-76
2023/07/14 00:11:23;;;;;;;10.73;6.80;;;16.80;99.90;;;;;;4975790;28;20039;-75
2023/07/14 00:13:51;;;;;;;9.40;6.95;;;16.90;99.90;;;;;;4942984;28;20061;-76
2023/07/14 00:16:28;;;;;;;9.50;6.63;;;16.90;99.90;;;;;;4959063;28;20046;-76
2023/07/14 00:18:54;;;;;;;9.18;6.47;;;16.90;99.90;;;;;;4943114;28;20047;-76
2023/07/14 00:21:22;;;;;;;9.90;7.05;;;17.00;99.90;;;;;;4958358;28;20119;-76
2023/07/14 00:23:49;;;;;;;13.23;6.63;;;16.90;99.90;;;;;;4942816;28;20039;-76
2023/07/14 00:26:20;;;;;;;12.15;7.43;;;16.90;99.90;;;;;;4958721;28;20043;-76
2023/07/14 00:28:50;;;;;;;9.52;6.43;;;16.80;99.90;;;;;;4958394;28;20065;-76
2023/07/14 00:31:19;;;;;;;10.27;7.20;;;16.80;99.90;;;;;;4942444;28;20092;-76
2023/07/14 00:33:48;;;;;;;9.85;7.07;;;16.90;99.90;;;;;;4958619;28;20047;-76
2023/07/14 00:36:21;;;;;;;9.57;6.53;;;16.90;99.90;;;;;;4976055;28;20403;-77
2023/07/14 00:38:47;;;;;;;13.40;7.25;;;;;;;;;;4942370;28;20039;-76
2023/07/14 00:41:22;;;;;;;10.75;7.05;;;17.00;99.90;;;;;;4957895;28;20122;-76
2023/07/14 00:43:49;;;;;;;10.60;7.35;;;17.00;99.90;;;;;;4942857;28;20491;-75
2023/07/14 00:46:28;;;;;;;8.70;7.15;;;16.90;99.90;;;;;;4958535;28;20043;-75
2023/07/14 00:48:59;;;;;;;11.90;7.65;;;16.70;99.90;;;;;;4975500;28;20043;-76
2023/07/14 00:51:29;;;;;;;9.32;7.60;;;16.70;99.90;;;;;;4975256;28;20113;-75
2023/07/14 00:53:56;;;;;;;12.90;7.88;;;;;;;;;;4975732;28;20078;-75
2023/07/14 00:56:38;;;;;;;10.23;7.68;;;16.80;99.90;;;;;;4958598;28;20047;-75
2023/07/14 00:59:15;;;;;;;16.20;8.52;;;16.80;99.90;;;;;;4942310;28;20053;-75
2023/07/14 01:02:09;;;;;;;11.10;7.25;;;16.90;99.90;;;;;;4957653;28;20042;-75
2023/07/14 01:04:35;;;;;;;13.43;8.23;;;;;;;;;;4958524;28;20407;-76
2023/07/14 01:07:04;;;;;;;13.85;8.25;;;;;;;;;;4958112;28;20122;-76
2023/07/14 01:09:31;;;;;;;10.90;8.52;;;16.80;99.90;;;;;;4975303;28;20061;-75
2023/07/14 01:12:00;;;;;;;10.60;7.55;;;16.50;99.90;;;;;;4974448;28;20435;-76
2023/07/14 01:14:32;;;;;;;9.80;8.18;;;16.50;99.90;;;;;;4957636;28;20046;-75
2023/07/14 01:16:59;;;;;;;10.73;7.80;;;16.80;99.90;;;;;;4940732;28;20038;-75
2023/07/14 01:19:36;;;;;;;11.73;8.10;;;16.70;99.90;;;;;;4941385;28;20043;-75
2023/07/14 01:22:11;;;;;;;11.45;9.30;;;16.50;99.90;;;;;;4957468;28;20406;-75
2023/07/14 01:24:52;;;;;;;12.32;8.27;;;16.70;99.90;;;;;;4957587;28;20053;-75
2023/07/14 01:27:17;;;;;;;12.90;9.18;;;16.60;99.90;;;;;;4941986;28;20061;-76
2023/07/14 01:29:43;;;;;;;10.73;8.52;;;16.70;99.90;;;;;;4957506;28;20573;-76
2023/07/14 01:32:17;;;;;;;12.00;8.85;;;16.80;99.90;;;;;;4957170;28;20143;-76
2023/07/14 01:34:44;;;;;;;15.48;8.73;;;16.60;99.90;;;;;;4957577;28;20049;-76
2023/07/14 01:37:12;;;;;;;11.40;8.52;;;16.50;99.90;;;;;;4941796;28;20050;-76
2023/07/14 01:39:39;;;;;;;10.65;8.50;;;16.60;99.90;;;;;;4941707;28;20042;-76
2023/07/14 01:42:05;;;;;;;15.50;8.75;;;16.90;99.90;;;;;;4956871;28;20502;-75
2023/07/14 01:44:33;;;;;;;13.95;8.93;;;;;;;;;;4957592;28;20038;-76
2023/07/14 01:47:00;;;;;;;11.80;8.38;;;16.50;99.90;;;;;;4974857;28;20078;-76
2023/07/14 01:49:26;;;;;;;11.02;9.30;;;;;;;;;;4974406;28;20050;-76
2023/07/14 01:51:56;;;;;;;13.57;9.60;;;16.60;99.90;;;;;;4957019;28;20513;-75
2023/07/14 01:54:22;;;;;;;14.07;8.75;;;;;;;;;;4957788;28;20406;-76
2023/07/14 01:56:49;;;;;;;11.30;8.45;;;16.40;99.90;;;;;;4957355;28;20132;-76
2023/07/14 01:59:21;;;;;;;12.68;9.10;;;16.30;99.90;;;;;;4956881;28;20038;-75
2023/07/14 02:01:49;;;;;;;16.05;9.43;;;15.10;99.90;;;;;;4973741;28;20054;-75
2023/07/14 02:04:29;;;;;;;10.40;7.22;;;16.30;99.90;;;;;;4957019;28;20085;-76
2023/07/14 02:06:58;;;;;;;11.23;8.18;;;16.50;99.90;;;;;;4957423;28;20035;-76
2023/07/14 02:09:24;;;;;;;11.45;7.93;;;16.30;99.90;;;;;;4974465;28;20035;-75
2023/07/14 02:11:57;;;;;;;11.85;8.35;;;16.50;99.90;;;;;;4940339;28;20039;-76
2023/07/14 02:14:27;;;;;;;11.27;8.90;;;16.30;99.90;;;;;;4940991;28;20045;-76
2023/07/14 02:17:04;;;;;;;12.75;8.02;;;16.30;99.90;;;;;;4957101;28;20034;-75
2023/07/14 02:19:30;;;;;;;9.68;8.00;;;;;;;;;;4941029;28;20403;-75
2023/07/14 02:21:56;;;;;;;10.75;8.43;;;;;;;;;;4956343;28;20054;-76
2023/07/14 02:24:25;;;;;;;12.13;7.95;;;16.40;99.90;;;;;;4974130;28;20066;-75
2023/07/14 02:27:04;;;;;;;12.38;8.48;;;16.30;99.90;;;;;;4956539;28;20042;-75
2023/07/14 02:29:30;;;;;;;12.45;8.63;;;16.40;99.90;;;;;;4956631;28;20046;-77
2023/07/14 02:32:29;;;;;;;11.65;8.00;;;16.40;99.90;;;;;;4973608;28;20129;-76
2023/07/14 02:35:15;;;;;;;11.13;8.40;;;16.40;99.90;;;;;;4956705;28;20043;-75
2023/07/14 02:38:00;;;;;;;8.45;7.40;;;16.30;99.90;;;;;;4940687;28;20061;-76
2023/07/14 02:40:28;;;;;;;12.98;7.75;;;16.30;99.90;;;;;;4956101;28;20046;-76
2023/07/14 02:42:54;;;;;;;14.70;9.32;;;16.40;99.90;;;;;;4973818;28;20043;-76
2023/07/14 02:45:22;;;;;;;13.13;8.35;;;16.30;99.90;;;;;;4956307;28;20042;-75
2023/07/14 02:47:50;;;;;;;11.68;7.60;;;16.30;99.90;;;;;;4956335;28;20126;-75
2023/07/14 02:50:16;;;;;;;13.25;8.43;;;;;;;;;;4939933;28;20047;-75
2023/07/14 02:52:42;;;;;;;11.32;9.02;;;;;;;;;;4940238;28;20045;-75
2023/07/14 02:55:09;;;;;;;15.45;9.25;;;16.20;99.90;;;;;;4940342;28;20178;-76
2023/07/14 02:57:35;;;;;;;13.75;8.35;;;16.10;99.90;;;;;;4956328;28;20039;-76
2023/07/14 03:00:00;;;;;;;10.70;7.25;;;16.20;99.90;;;;;;4955547;28;20465;-76
2023/07/14 03:02:27;;;;;;;10.27;7.60;;;;;;;;;;4956067;28;20039;-75
2023/07/14 03:04:54;;;;;;;12.70;8.50;;;;;;;;;;4956069;28;20046;-75
2023/07/14 03:07:20;;;;;;;16.25;8.43;;;16.10;99.90;;;;;;4956071;28;20043;-75
2023/07/14 03:09:46;;;;;;;11.15;8.00;;;;;;;;;;4955411;28;20052;-75
2023/07/14 03:12:11;;;;;;;14.13;8.70;;;16.20;99.90;;;;;;4973255;28;20081;-75
2023/07/14 03:14:37;;;;;;;14.82;8.80;;;;;;;;;;4973196;28;20074;-75
2023/07/14 03:17:03;;;;;;;10.85;7.50;;;16.20;99.90;;;;;;4955576;28;20042;-75
2023/07/14 03:19:29;;;;;;;25.27;8.13;;;;;;;;;;4939778;28;20058;-75
2023/07/14 03:21:55;;;;;;;10.95;7.85;;;16.20;99.90;;;;;;4972590;28;20155;-75
2023/07/14 03:24:21;;;;;;;16.90;8.23;;;16.20;99.90;;;;;;4973006;28;20081;-75
2023/07/14 03:26:46;;;;;;;10.50;7.22;;;16.20;99.90;;;;;;4955717;28;20038;-75
2023/07/14 03:29:12;;;;;;;12.35;7.78;;;;;;;;;;4973596;28;20067;-75
2023/07/14 03:31:43;;;;;;;12.27;7.75;;;16.00;99.90;;;;;;4955106;28;20129;-76
2023/07/14 03:34:10;;;;;;;10.52;7.93;;;16.00;99.90;;;;;;4955656;28;20031;-75
2023/07/14 03:36:37;;;;;;;11.50;7.70;;;;;;;;;;4955576;28;20507;-75
2023/07/14 03:39:23;;;;;;;10.38;7.28;;;16.20;99.90;;;;;;4955481;28;20047;-75
2023/07/14 03:41:49;;;;;;;11.20;6.90;;;;;;;;;;4958832;28;20047;-75
2023/07/14 03:44:15;;;;;;;9.38;6.35;;;16.00;99.90;;;;;;4943926;28;20398;-75
2023/07/14 03:46:41;;;;;;;15.35;8.00;;;;;;;;;;4959560;28;20031;-75
2023/07/14 03:49:07;;;;;;;14.30;8.18;;;16.20;99.90;;;;;;4943271;28;20514;-75
2023/07/14 03:51:33;;;;;;;12.50;7.35;;;16.00;99.90;;;;;;4958719;28;20043;-76
2023/07/14 03:53:59;;;;;;;13.60;7.70;;;15.90;99.90;;;;;;4959625;28;20034;-75
2023/07/14 03:56:26;;;;;;;10.07;7.45;;;16.10;99.90;;;;;;4943034;28;20042;-75
2023/07/14 03:58:52;;;;;;;10.20;6.53;;;16.00;99.90;;;;;;4942983;28;20038;-75
2023/07/14 04:01:18;;;;;;;10.55;7.05;;;;;;;;;;4942873;28;20419;-75
2023/07/14 04:03:46;;;;;;;10.20;6.63;;;16.10;99.90;;;;;;4943256;28;20047;-75
2023/07/14 04:06:12;;;;;;;13.43;8.23;;;;;;;;;;4943441;28;20122;-75
2023/07/14 04:08:42;;;;;;;10.80;7.05;;;15.80;99.90;;;;;;4959009;28;20526;-75
2023/07/14 04:11:09;;;;;;;14.07;7.50;;;15.90;99.90;;;;;;4942546;28;20042;-75
2023/07/14 04:13:35;;;;;;;9.95;7.95;;;15.90;99.90;;;;;;4943340;28;20093;-77
2023/07/14 04:16:03;;;;;;;9.00;7.18;;;15.90;99.90;;;;;;4976552;28;20078;-76
2023/07/14 04:18:30;;;;;;;10.77;7.85;;;15.90;99.90;;;;;;4958777;28;20039;-75
2023/07/14 04:21:01;;;;;;;11.52;7.55;;;15.90;99.90;;;;;;4942070;28;20057;-75
2023/07/14 04:23:27;;;;;;;9.38;6.85;;;15.80;99.90;;;;;;4976125;28;20054;-76
2023/07/14 04:25:53;;;;;;;9.65;6.10;;;;;;;;;;4958463;28;20039;-75
2023/07/14 04:28:19;;;;;;;11.60;7.15;;;;;;;;;;4975915;28;20089;-75
2023/07/14 04:30:56;;;;;;;10.88;6.90;;;16.00;99.90;;;;;;4975602;28;20046;-75
2023/07/14 04:33:22;;;;;;;11.25;6.78;;;16.10;99.90;;;;;;4958557;28;20475;-75
2023/07/14 04:35:52;;;;;;;9.15;5.90;;;16.10;99.90;;;;;;4958355;28;20399;-75
2023/07/14 04:38:19;;;;;;;8.48;6.53;;;15.90;99.90;;;;;;4958538;28;20116;-75
2023/07/14 04:40:48;;;;;;;7.63;5.90;;;16.20;99.90;;;;;;4957834;28;20039;-75
2023/07/14 04:43:15;;;;;;;9.52;5.75;;;16.10;99.90;;;;;;4976057;28;20053;-75
2023/07/14 04:45:42;;;;;;;9.75;5.45;;;16.20;99.90;;;;;;4958167;28;20047;-75
2023/07/14 04:48:12;;;;;;;12.07;5.55;;;16.20;99.90;;;;;;4975770;28;20035;-75
2023/07/14 04:50:38;;;;;;;13.50;6.00;;;16.40;99.90;;;;;;4957245;28;20507;-75
2023/07/14 04:53:05;;;;;;;10.73;5.22;;;;;;;;;;4957532;28;20043;-75
2023/07/14 04:55:40;;;;;;;8.55;5.35;;;16.40;99.90;;;;;;4958143;28;20047;-75
2023/07/14 04:58:06;;;;;;;6.10;5.15;;;16.30;99.90;;;;;;4958288;28;20148;-77
2023/07/14 05:01:22;;;;;;;8.40;4.85;;;16.60;99.90;;;;;;4996030;23;20035;-69
2023/07/14 05:04:06;;;;;;;8.35;5.25;;;16.40;99.90;;;;;;4977718;28;20046;-68
2023/07/14 05:06:47;;;;;;;9.30;4.97;;;16.60;99.90;;;;;;4961447;28;20046;-68
2023/07/14 05:09:26;;;;;;;13.90;4.82;;;16.60;99.90;;;;;;4994946;28;20130;-68
2023/07/14 05:12:01;;;;;;;11.02;4.95;;;;;;;;;;4961227;28;20042;-68
2023/07/14 05:14:49;;;;;;;9.63;4.80;;;16.90;99.90;;;;;;4993667;28;20080;-68
2023/07/14 05:17:20;;;;;;;10.88;4.97;;;17.10;99.90;;;;;;4977426;28;20039;-70
2023/07/14 05:19:52;;;;;;;9.88;4.78;;;16.90;99.90;;;;;;4994643;28;20038;-72
2023/07/14 05:22:19;;;;;;;11.53;4.80;;;;;;;;;;4977506;28;20042;-68
2023/07/14 05:24:58;;;;;;;12.05;4.50;;;17.00;99.90;;;;;;4977083;28;20045;-68
2023/07/14 05:27:35;;;;;;;7.73;3.80;;;;;;;;;;4993394;28;20434;-69
2023/07/14 05:30:19;;;;;;;7.53;4.10;;;17.30;99.90;;;;;;4993934;28;20089;-70
2023/07/14 05:32:54;;;;;;;;;;;17.20;99.90;;;;;;4977771;28;20058;-69
2023/07/14 05:35:31;;;;;;;7.38;3.97;;;17.40;99.90;;;;;;4994125;28;19921;-69
2023/07/14 05:38:24;;;;;;;8.57;4.25;;;17.70;99.90;;;;;;4977314;28;20097;-68
2023/07/14 05:41:04;;;;;;;;;;;;;;;;;;;;;
2023/07/14 05:43:31;;;;;;;7.43;4.40;;;17.40;99.90;;;;;;4976717;28;20050;-68
2023/07/14 05:45:57;;;;;;;8.32;3.78;;;;;;;;;;4993011;28;20038;-69
2023/07/14 05:48:40;;;;;;;7.13;4.15;;;17.70;99.90;;;;;;4976312;28;20136;-71
2023/07/14 05:51:17;;;;;;;12.60;4.28;;;17.80;99.90;;;;;;4975650;28;20042;-68
2023/07/14 05:53:57;;;;;;;10.75;4.25;;;17.90;99.90;;;;;;4976528;28;20046;-69
2023/07/14 05:56:38;;;;;;;9.75;5.05;;;17.90;99.90;;;;;;4976744;28;20188;-69
2023/07/14 05:59:12;;;;;;;8.85;4.60;;;18.00;99.90;;;;;;4976347;28;20038;-69
2023/07/14 06:01:59;;;;;;;6.10;3.85;;;18.00;99.90;;;;;;4976367;28;20533;-69
2023/07/14 06:04:28;;;;;;;12.60;3.90;;;;;;;;;;4993711;28;20517;-69
2023/07/14 06:07:06;;;;;;;11.07;4.18;;;18.40;99.90;;;;;;4976701;28;20041;-70
2023/07/14 06:09:49;;;;;;;10.40;3.85;;;18.40;99.90;;;;;;4977168;28;20494;-69
2023/07/14 06:12:18;;;;;;;7.20;3.63;;;18.60;99.90;;;;;;4976835;28;20038;-69
2023/07/14 06:14:57;;;;;;;15.13;5.15;;;18.40;99.90;;;;;;4976660;28;20097;-69
2023/07/14 06:17:27;;;;;;;10.23;3.67;;;;;;;;;;4977048;28;20049;-69
2023/07/14 06:19:53;;;;;;;6.38;3.63;;;18.70;99.90;;;;;;4976038;28;20041;-69
2023/07/14 06:22:25;;;;;;;9.30;4.20;;;18.80;99.90;;;;;;4976196;28;20050;-69
2023/07/14 06:25:00;;;;;;;9.02;4.32;;;18.80;99.90;;;;;;4975900;28;20082;-67
2023/07/14 06:27:35;;;;;;;8.05;4.13;;;18.80;99.90;;;;;;4976224;28;20046;-68
2023/07/14 06:30:08;;;;;;;8.80;3.63;;;18.90;99.90;;;;;;4975650;28;20525;-67
2023/07/14 06:32:38;;;;;;;8.90;3.67;;;19.20;99.90;;;;;;4993261;28;20090;-67
2023/07/14 06:35:15;;;;;;;8.13;3.67;;;19.30;99.90;;;;;;4976578;28;20046;-67
2023/07/14 06:37:47;;;;;;;10.00;4.68;;;19.20;99.90;;;;;;4977582;28;20440;-68
2023/07/14 06:40:13;;;;;;;10.90;3.95;;;;;;;;;;4976343;28;20046;-67
2023/07/14 06:42:45;;;;;;;8.35;3.83;;;19.30;99.90;;;;;;4977466;28;20053;-67
2023/07/14 06:45:34;;;;;;;8.75;4.82;;;19.20;99.90;;;;;;4975578;28;20051;-67
2023/07/14 06:48:00;;;;;;;9.40;4.57;;;19.40;99.90;;;;;;4976077;28;20042;-67
2023/07/14 06:50:55;;;;;;;7.20;3.83;;;19.60;99.90;;;;;;4976302;28;20441;-67
2023/07/14 06:53:53;;;;;;;10.85;4.82;;;19.70;99.90;;;;;;4976118;28;20057;-67
2023/07/14 06:56:34;;;;;;;12.23;4.72;;;19.60;99.90;;;;;;4975520;28;20044;-68
2023/07/14 06:59:20;;;;;;;8.55;4.85;;;19.50;99.90;;;;;;4960085;28;20163;-68
2023/07/14 07:02:01;;;;;;;9.45;4.70;;;19.80;99.90;;;;;;4992009;28;20054;-67
2023/07/14 07:04:48;;;;;;;11.20;4.55;;;19.70;99.90;;;;;;4993502;28;20140;-67
2023/07/14 07:07:46;;;;;;;11.65;4.70;;;19.90;99.90;;;;;;4992677;28;20125;-67
2023/07/14 07:10:23;;;;;;;8.00;5.03;;;20.20;99.90;;;;;;4978320;28;20049;-67
2023/07/14 07:13:00;;;;;;;9.65;5.10;;;20.10;99.90;;;;;;4978997;28;20042;-67
2023/07/14 07:15:43;;;;;;;11.32;4.72;;;20.20;99.90;;;;;;4974997;28;20133;-67
2023/07/14 07:18:12;;;;;;;10.90;5.55;;;20.20;99.90;;;;;;4975958;28;20038;-67
2023/07/14 07:20:47;;;;;;;9.80;5.55;;;20.30;99.90;;;;;;4991318;28;20038;-67
2023/07/14 07:23:25;;;;;;;7.43;5.30;;;20.30;99.90;;;;;;4975672;28;20494;-69
2023/07/14 07:26:00;;;;;;;7.85;4.75;;;20.40;99.90;;;;;;4974825;28;20046;-67
2023/07/14 07:28:29;;;;;;;10.57;5.07;;;20.40;99.90;;;;;;4975414;28;20454;-67
2023/07/14 07:31:11;;;;;;;16.40;5.97;;;20.50;99.90;;;;;;4975262;28;20053;-67
2023/07/14 07:33:51;;;;;;;5.95;4.25;;;20.70;99.90;;;;;;4975637;28;20078;-67
2023/07/14 07:36:27;;;;;;;8.63;4.43;;;20.70;99.90;;;;;;4975754;28;20042;-67
2023/07/14 07:42:09;;;;;;;10.55;4.35;;;20.70;99.90;;;;;;4968806;28;20055;-68
2023/07/14 07:44:39;;;;;;;9.25;4.30;;;20.80;99.90;;;;;;4959167;28;20410;-67
2023/07/14 07:47:22;;;;;;;10.57;6.28;;;20.80;99.90;;;;;;4974976;28;20510;-67
2023/07/14 07:50:00;;;;;;;7.53;3.97;;;20.80;99.90;;;;;;4991029;28;20042;-67
2023/07/14 07:52:33;;;;;;;7.28;3.50;;;19.00;99.90;;;;;;4959882;28;20046;-68
2023/07/14 07:55:01;;;;;;;7.90;3.20;;;21.00;99.90;;;;;;4975199;28;20049;-67
2023/07/14 07:57:38;;;;;;;8.93;3.78;;;21.00;99.90;;;;;;4992451;28;20101;-67
2023/07/14 08:00:11;;;;;;;7.53;3.22;;;21.10;99.90;;;;;;4973572;28;20061;-67
2023/07/14 08:02:49;;;;;;;7.57;3.58;;;19.00;99.90;;;;;;4959427;28;20452;-68
2023/07/14 08:05:18;;;;;;;6.70;3.00;;;;;;;;;;4992301;28;20073;-68
2023/07/14 08:07:55;;;;;;;4.45;2.83;;;21.10;99.90;;;;;;4975418;28;20038;-67
2023/07/14 08:10:21;;;;;;;5.57;2.90;;;;;;;;;;4974331;28;20133;-68
2023/07/14 08:12:47;;;;;;;5.60;2.67;;;21.00;99.90;;;;;;4975505;28;20043;-68
2023/07/14 08:15:32;;;;;;;4.38;2.70;;;21.00;99.90;;;;;;4974992;28;20042;-67
2023/07/14 08:18:10;;;;;;;5.25;2.78;;;21.30;99.90;;;;;;4975134;28;20039;-67
2023/07/14 08:20:50;;;;;;;5.38;3.63;;;21.50;99.90;;;;;;4974280;28;20038;-67
2023/07/14 08:23:34;;;;;;;6.60;2.97;;;;;;;;;;4992229;28;20038;-66
2023/07/14 08:26:33;;;;;;;8.13;2.85;;;21.50;99.90;;;;;;4992370;28;20057;-67
2023/07/14 08:29:15;;;;;;;5.25;2.55;;;21.60;99.90;;;;;;4993792;28;20046;-67
2023/07/14 08:31:56;;;;;;;4.20;3.53;;;21.50;99.90;;;;;;4977822;28;20046;-67
2023/07/14 08:41:46;;;;;;;4.65;2.72;;;21.20;99.90;;;;;;4985089;28;20106;-67
2023/07/14 08:45:33;;;;;;;4.60;2.57;;;21.40;99.90;;;;;;4977741;28;20085;-67
2023/07/14 08:48:45;;;;;;;5.63;2.90;;;21.30;99.90;;;;;;4895300;29;20293;-68
2023/07/14 08:52:12;;;;;;;6.57;2.58;;;21.10;99.90;;;;;;4888440;28;20056;-67
2023/07/14 08:55:10;;;;;;;7.03;2.50;;;21.60;99.90;;;;;;4939115;28;20093;-67
2023/07/14 08:58:14;;;;;;;3.80;2.33;;;21.60;99.90;;;;;;4971759;28;20100;-67
2023/07/14 09:01:13;;;;;;;9.07;3.17;;;21.90;99.90;;;;;;4963856;28;20069;-67
2023/07/14 09:03:53;;;;;;;3.78;2.33;;;22.30;99.90;;;;;;4936865;28;20046;-67
2023/07/14 09:06:47;;;;;;;6.23;2.37;;;22.20;99.90;;;;;;4994373;28;20038;-69
2023/07/14 09:09:40;;;;;;;;;;;;;;;;;;;;;
2023/07/14 09:13:08;;;;;;;5.13;2.45;;;22.50;99.90;;;;;;4976709;28;20051;-69
2023/07/14 09:16:19;;;;;;;9.38;2.90;;;22.40;99.90;;;;;;4977797;28;20053;-69
2023/07/14 09:19:39;;;;;;;;;;;;;;;;;;;;;
2023/07/14 09:22:54;;;;;;;7.72;3.25;;;23.90;99.90;;;;;;4974621;28;20054;-70
2023/07/14 09:25:52;;;;;;;;;;;;;;;;;;;;;
2023/07/14 09:28:56;;;;;;;4.03;1.95;;;22.30;99.90;;;;;;4988872;28;20054;-70
2023/07/14 09:35:34;;;;;;;5.00;2.33;;;23.00;99.90;;;;;;4973945;28;20046;-70
2023/07/14 09:38:23;;;;;;;6.65;3.08;;;23.00;99.90;;;;;;4970547;28;20053;-70
2023/07/14 09:41:15;;;;;;;8.40;3.15;;;22.20;99.90;;;;;;4975942;28;20101;-70
2023/07/14 09:43:57;;;;;;;;;;;;;;;;;;;;;
2023/07/14 09:47:04;;;;;;;5.77;2.47;;;23.00;99.90;;;;;;4976919;28;20085;-70
2023/07/14 09:49:57;;;;;;;5.53;2.72;;;22.80;99.90;;;;;;4976493;28;20339;-70
2023/07/14 09:52:56;;;;;;;6.50;3.15;;;23.60;99.90;;;;;;4994196;28;20038;-70
2023/07/14 09:56:00;;;;;;;6.10;2.65;;;21.10;99.90;;;;;;4994383;28;20037;-70
2023/07/14 09:59:18;;;;;;;10.18;3.25;;;23.70;99.90;;;;;;4961102;28;20399;-70
2023/07/14 10:02:49;;;;;;;;;;;;;;;;;;;;;
2023/07/14 10:06:12;;;;;;;4.32;2.85;;;23.90;99.90;;;;;;4971943;28;20112;-70
2023/07/14 10:08:54;;;;;;;5.95;2.97;;;22.90;99.90;;;;;;4896025;28;20058;-74
2023/07/14 10:12:46;;;;;;;6.65;3.38;;;23.40;99.90;;;;;;4960091;28;20042;-70
2023/07/14 10:15:32;;;;;;;8.55;2.95;;;23.00;99.90;;;;;;4973526;28;20046;-70
2023/07/14 10:18:45;;;;;;;9.35;3.13;;;22.70;99.90;;;;;;4976603;28;20112;-70
2023/07/14 10:28:39;;;;;;;7.50;3.70;;;22.10;99.90;;;;;;4993322;28;20051;-70
2023/07/14 10:32:05;;;;;;;6.40;3.13;;;22.00;99.90;;;;;;4991159;28;20494;-70
2023/07/14 10:35:23;;;;;;;6.30;3.67;;;22.30;99.90;;;;;;4879715;28;20085;-70
2023/07/14 10:42:13;;;;;;;6.15;2.70;;;24.00;99.90;;;;;;4973276;28;20081;-70
2023/07/14 10:45:46;;;;;;;5.50;3.13;;;21.20;99.90;;;;;;4960151;28;20383;-67
2023/07/14 10:52:42;;;;;;;;;;;;;;;;;;;;;
2023/07/14 10:55:48;;;;;;;5.70;2.50;;;22.90;99.90;;;;;;4950902;29;20467;-70
2023/07/14 11:01:39;;;;;;;4.13;2.63;;;23.20;99.90;;;;;;4995678;23;20511;-76
2023/07/14 11:04:07;;;;;;;8.77;3.05;;;24.00;99.90;;;;;;4940098;28;20042;-77
2023/07/14 11:06:35;;;;;;;5.82;2.95;;;23.50;99.90;;;;;;4940061;28;20039;-77
2023/07/14 11:09:02;;;;;;;6.53;2.67;;;23.10;99.90;;;;;;4973754;28;20081;-77
2023/07/14 11:11:49;;;;;;;4.97;2.65;;;23.20;99.90;;;;;;4955903;28;20058;-77
2023/07/14 11:14:29;;;;;;;5.90;3.65;;;23.30;99.90;;;;;;4973835;28;20050;-77
2023/07/14 11:17:02;;;;;;;7.25;3.45;;;22.50;99.90;;;;;;4956868;28;20101;-77
2023/07/14 11:19:48;;;;;;;10.40;4.82;;;23.70;99.90;;;;;;4973883;28;20162;-77
2023/07/14 11:22:42;;;;;;;7.47;4.07;;;23.70;99.90;;;;;;4942986;28;20090;-78
2023/07/14 11:25:26;;;;;;;6.45;4.03;;;23.90;99.90;;;;;;4956381;28;20050;-77
2023/07/14 11:28:17;;;;;;;7.47;3.88;;;23.60;99.90;;;;;;4973491;28;20109;-76
2023/07/14 11:30:48;;;;;;;8.00;4.38;;;23.80;99.90;;;;;;4971595;28;20475;-77
2023/07/14 11:33:26;;;;;;;8.23;4.10;;;23.50;99.90;;;;;;4974017;28;20503;-77
2023/07/14 11:36:06;;;;;;;7.50;3.92;;;23.90;99.90;;;;;;4956320;28;20525;-76
2023/07/14 11:38:48;;;;;;;8.50;3.85;;;21.60;99.90;;;;;;4955801;28;20042;-77
2023/07/14 11:41:17;;;;;;;7.75;4.05;;;24.00;99.90;;;;;;4972903;28;20086;-77
2023/07/14 11:43:44;;;;;;;6.95;3.20;;;23.70;99.90;;;;;;4971980;28;20090;-75
2023/07/14 11:46:15;;;;;;;7.25;2.80;;;24.30;99.90;;;;;;4955824;28;20042;-75
2023/07/14 11:48:52;;;;;;;5.63;3.30;;;24.60;99.90;;;;;;4956049;28;20514;-75
2023/07/14 11:51:19;;;;;;;5.35;3.97;;;24.00;99.90;;;;;;4955123;28;20101;-77
2023/07/14 11:54:15;;;;;;;6.22;3.65;;;23.90;99.90;;;;;;4956144;28;20035;-76
2023/07/14 11:56:44;;;;;;;5.10;3.58;;;21.80;99.90;;;;;;4939231;28;20053;-75
2023/07/14 11:59:19;;;;;;;8.43;3.78;;;23.90;99.90;;;;;;4972369;28;20049;-76
2023/07/14 12:02:40;;;;;;;6.18;4.45;;;23.60;99.90;;;;;;4957054;28;20035;-76
2023/07/14 12:05:15;;;;;;;7.68;3.83;;;23.40;99.90;;;;;;4906677;28;20083;-75
2023/07/14 12:08:20;;;;;;;6.55;3.55;;;23.50;99.90;;;;;;4975356;28;20043;-76
2023/07/14 12:10:46;;;;;;;9.52;4.30;;;23.50;99.90;;;;;;4963957;28;20054;-76
2023/07/14 12:13:18;;;;;;;9.05;3.97;;;23.70;99.90;;;;;;4959569;28;20046;-80
2023/07/14 12:16:03;;;;;;;6.78;4.20;;;23.40;99.90;;;;;;4959954;28;20049;-77
2023/07/14 12:18:30;;;;;;;6.18;3.70;;;23.70;99.90;;;;;;4959524;28;20050;-76
2023/07/14 12:21:16;;;;;;;9.88;3.65;;;23.80;99.90;;;;;;4976480;28;20410;-77
2023/07/14 12:23:51;;;;;;;9.80;4.13;;;24.30;99.90;;;;;;4959488;28;20082;-77
2023/07/14 12:26:31;;;;;;;5.88;3.60;;;24.10;99.90;;;;;;4959516;28;20109;-77
2023/07/14 12:29:01;;;;;;;7.53;4.00;;;24.10;99.90;;;;;;4959192;28;20043;-77
2023/07/14 12:31:34;;;;;;;7.97;4.18;;;23.90;99.90;;;;;;4974526;28;20093;-76
2023/07/14 12:34:00;;;;;;;7.40;3.47;;;21.30;99.90;;;;;;4958499;28;20483;-77
2023/07/14 12:36:29;;;;;;;8.02;3.88;;;24.50;99.90;;;;;;4959104;28;20047;-78
2023/07/14 12:38:56;;;;;;;11.82;4.43;;;24.10;99.90;;;;;;4959051;28;20042;-77
2023/07/14 12:41:28;;;;;;;5.93;3.63;;;21.90;99.90;;;;;;4974809;28;20039;-77
2023/07/14 12:43:59;;;;;;;7.93;4.25;;;22.10;99.90;;;;;;4976499;28;20043;-77
2023/07/14 12:46:28;;;;;;;8.25;4.40;;;24.40;99.90;;;;;;4976283;28;20035;-77
2023/07/14 12:49:19;;;;;;;11.30;4.00;;;23.90;99.90;;;;;;4976644;28;20074;-79
2023/07/14 12:51:45;;;;;;;8.82;3.90;;;23.50;99.90;;;;;;4949192;28;20078;-77
2023/07/14 12:54:26;;;;;;;9.05;4.72;;;23.90;99.90;;;;;;4959177;28;20039;-78
2023/07/14 12:56:58;;;;;;;7.90;4.60;;;26.50;99.90;;;;;;4975953;28;20537;-77
2023/07/14 12:59:24;;;;;;;10.32;4.30;;;24.00;99.90;;;;;;4976003;28;20066;-77
2023/07/14 13:01:54;;;;;;;10.05;4.68;;;23.60;99.90;;;;;;4975170;28;20125;-77
2023/07/14 13:04:21;;;;;;;8.57;5.45;;;23.90;99.90;;;;;;4958408;28;20055;-77
2023/07/14 13:06:52;;;;;;;6.65;4.45;;;23.70;99.90;;;;;;4976066;28;20051;-78
2023/07/14 13:09:26;;;;;;;10.38;4.80;;;23.80;99.90;;;;;;4958632;28;20053;-77
2023/07/14 13:11:53;;;;;;;10.90;4.78;;;24.00;99.90;;;;;;4957339;28;20041;-77
2023/07/14 13:14:29;;;;;;;10.23;5.25;;;23.10;99.90;;;;;;4942620;28;20047;-77
2023/07/14 13:16:54;;;;;;;8.40;4.00;;;23.50;99.90;;;;;;4959275;28;20534;-77
2023/07/14 13:19:41;;;;;;;9.45;4.93;;;23.10;99.90;;;;;;4978221;28;20050;-77
2023/07/14 13:22:17;;;;;;;9.80;4.70;;;23.30;99.90;;;;;;4959730;28;20051;-76
2023/07/14 13:25:03;;;;;;;10.57;4.85;;;24.70;99.90;;;;;;4958493;28;20142;-77
2023/07/14 13:27:30;;;;;;;16.23;6.65;;;23.90;99.90;;;;;;4974981;28;20050;-74
2023/07/14 13:30:01;;;;;;;12.23;5.32;;;23.20;99.90;;;;;;4957238;28;20514;-74
2023/07/14 13:32:28;;;;;;;10.00;5.25;;;23.50;99.90;;;;;;4957207;28;20503;-74
2023/07/14 13:34:59;;;;;;;13.30;4.80;;;23.60;99.90;;;;;;4957308;28;20499;-74
2023/07/14 13:37:27;;;;;;;15.73;5.20;;;23.90;99.90;;;;;;4974570;28;20046;-74
2023/07/14 13:39:58;;;;;;;9.38;5.03;;;24.80;99.90;;;;;;4957132;28;20043;-74
2023/07/14 13:42:43;;;;;;;9.07;4.80;;;24.40;99.90;;;;;;4957971;28;20055;-74
2023/07/14 13:45:22;;;;;;;7.28;4.63;;;25.10;99.90;;;;;;4974951;28;20469;-74
2023/07/14 13:47:54;;;;;;;9.98;5.20;;;22.70;99.90;;;;;;4957524;28;20046;-74
2023/07/14 13:50:20;;;;;;;10.82;5.50;;;24.50;99.90;;;;;;4956747;28;20050;-75
2023/07/14 13:52:49;;;;;;;8.73;4.85;;;24.30;99.90;;;;;;4957190;28;20046;-74
2023/07/14 13:55:20;;;;;;;6.35;4.63;;;24.50;99.90;;;;;;4957416;28;20070;-75
2023/07/14 13:57:46;;;;;;;8.90;5.00;;;24.30;99.90;;;;;;4957547;28;20499;-74
2023/07/14 14:00:16;;;;;;;9.80;4.60;;;24.40;99.90;;;;;;4972820;28;20105;-74
2023/07/14 14:02:45;;;;;;;11.63;4.65;;;23.60;99.90;;;;;;4957076;28;20074;-74
2023/07/14 14:05:22;;;;;;;8.07;4.70;;;24.70;99.90;;;;;;4957481;28;20097;-75
2023/07/14 14:07:54;;;;;;;7.43;4.63;;;24.10;99.90;;;;;;4974644;28;20683;-74
2023/07/14 14:10:27;;;;;;;11.52;4.68;;;24.90;99.90;;;;;;4956483;28;20058;-75
2023/07/14 14:12:54;;;;;;;8.68;3.95;;;25.00;99.90;;;;;;4940958;28;20113;-75
2023/07/14 14:15:32;;;;;;;10.77;4.60;;;25.10;99.90;;;;;;4956951;28;20126;-74
2023/07/14 14:18:10;;;;;;;6.68;4.50;;;25.00;99.90;;;;;;4974398;28;20031;-75
2023/07/14 14:20:44;;;;;;;8.77;4.63;;;25.40;99.90;;;;;;4973888;28;20042;-74
2023/07/14 14:23:17;;;;;;;8.15;4.75;;;25.00;99.90;;;;;;4974082;28;20099;-74
2023/07/14 14:25:43;;;;;;;7.63;4.40;;;25.00;99.90;;;;;;4957044;28;20065;-75
2023/07/14 14:28:10;;;;;;;10.10;4.45;;;25.10;99.90;;;;;;4972829;28;20122;-76